Ashland, ME

1:51 AM EDT on July 23, 2014 (GMT -0400)
Northern Maine Regional At Presque Isle (KPQI) Elev 479 ft | 46.69 °N, 68.04 °W | Change Station

Current weather conditions updated 16 minutes ago

Clear
Clear
70 °F
Feels Like 70 °F
N
0
Wind Variable Wind from North

Today is forecast to be Cooler than yesterday. Afternoon showers and thunderstorms.

Today
High -- | Low -- °F
--% Chance of Precip.
Yesterday
High -- | Low -- °F
Precip. -- in
5:03 AM 8:15 PM
Waning Crescent, 12% visible
Pressure 29.83 in
Visibility 10.0 miles
Clouds Clear
Dew Point 59 °F
Humidity 68%
Rainfall 0.00 in
Snow Depth Not available.
UV 0 out of 12
Pollen 5.00 out of 12
Ozone Good
PM2.5 Good
Flu Activity Not available.
METAR KPQI 230535Z AUTO 00000KT 10SM CLR 21/15 A2983 RMK AO1

More Conditions Fewer Conditions

Pressure 29.83 in
Visibility 10.0 miles
Clouds Clear
Dew Point 59 °F
Humidity 68%
Rainfall 0.00 in
Snow Depth Not available.
UV 0 out of 12
Pollen 5.00 out of 12
Ozone Good
PM2.5 Good
Flu Activity Not available.
METAR KPQI 230535Z AUTO 00000KT 10SM CLR 21/15 A2983 RMK AO1

More Conditions Fewer Conditions

10-Day Weather Forecast

Almanac

Astronomy

Jul. 23, 2014 Rise Set
Actual Time 5:03 AM EDT 8:15 PM EDT
Civil Twilight 4:27 AM EDT 8:52 PM EDT
Nautical Twilight 3:39 AM EDT 9:39 PM EDT
Astronomical Twilight 2:40 AM EDT 10:38 PM EDT
Moon 2:21 AM EDT 5:40 PM EDT
Length of Visible Light 16h 25m
Length of Day
15h 12m
Tomorrow will be 2m 13s shorter.
Waning Crescent, 12% of the Moon is Illuminated
Today
Waning Crescent
Jul 26
New
Aug 3
First Quarter
Aug 10
Full
Aug 17
Last Quarter

Today's Extremes

State Highs State Lows

Community

WunderPhotos

Upload Photos

1,736,515 photos uploaded!

Nearby

Air Quality

  Air Quality AQ Index Pollutant
Yesterday Good
PM2.5
Yesterday Good
OZONE
Current Good
PM2.5
Current Good
OZONE
Wednesday Moderate
PM2.5
Wednesday Good
OZONE
Thursday Good
OZONE
Thursday Good
PM2.5
Friday Good
OZONE
Friday Good
PM2.5
Saturday Good
OZONE
Saturday Good
PM2.5

Snow Depth

Station Depth Elevation
No new snow has been reported.

Earthquake Activity

City Distance Mag. Time & Date
No recent earthquake activity has been reported nearby.
Minimum magnitude displayed is 2.5.

Coastal Water Temperatures

Place Temperature
No Stations Reporting

Nearby Weather Stations

Station Location Temp. Heat Index Dew Point Humidity Wind Precip. Elev Updated Type
NEPP Oxbow, ME, Oxbow, ME 67 °F - - - North  at  - 0.00 in / hr 698 ft 12:45 AM EDT MADIS
Micmac Environmental, Presque Isle, ME 70.1 °F 71 °F 64 °F 81% SSW  at  0.0 mph 0.00 in / hr 540 ft 1:51 AM EDT Rapid Fire
Micmac Environmental, Caribou, ME 68.0 °F - 63 °F 85% SSE  at  2.0 mph 0.00 in / hr 634 ft 1:51 AM EDT Rapid Fire
NEPP Foxbrook, ME, Portage, ME 68 °F - - - North  at  - 0.00 in / hr 879 ft 12:40 AM EDT MADIS
APRSWXNET Presque Isle ME , Presque Isle, ME 70 °F - 62 °F 77% SSW  at  4 mph 0.00 in / hr 2099 ft 1:00 AM EDT MADIS

Show More Stations Show Fewer Stations